Airfield :
LOGIN :

Register | Disclaimer

   EN    FR    IT 

 










Legend :    VFR   Marginal VFR   IFR   Intensive IFR   Very Intensive IFR
Visi :
Ceiling :
>= 8 km
>= 3000ft
5 to 8 km
1000 to 3000 ft
1500m to 5 km
500 to 1000 ft
800 to 1500m
200 to 500 ft
< 800m
< 200 ft
Symbols :   Thunderstorms  Fog  Heavy snow  Heavy precipitations  Wind > 20 kt
SIGMETs :     Misc.  Thunderstorms  Icing  Turbulence  Mountain Waves  Volcanic Ashes







- Airport Elevation : 1411 ft
- IATA code : GVA


LSGG - Genève Cointrin

CURRENT METAR :
  • 220550Z VRB03KT 8000 RA FEW010 SCT035 BKN045 07/07 Q1017 NOSIG

EXPIRED METARs :
  • 220520Z VRB02KT 9000 RA FEW010 SCT035 BKN045 07/07 Q1017 NOSIG
  • 220450Z 28005KT 9000 RA FEW010 SCT035 BKN045 07/07 Q1017 NOSIG
  • 220420Z AUTO 25005KT 230V290 8000 RA FEW028 SCT037 BKN042 07/07 Q1017 NOSIG
  • 220350Z AUTO 23008KT 210V280 9999 RA FEW012 SCT033 BKN041 09/08 Q1017 NOSIG
  • 220320Z AUTO 20011KT 9999 RA FEW013 BKN042 08/08 Q1017 NOSIG

TAF TAF LSGG
Valid from the 22 at 06:00 until the 23 at 12:00 UTC


220525Z 2206/2312 23008KT 9000 RA FEW025 BKN040 TX10/2215Z TN08/2206Z TN04/2306Z
TEMPO 2212/2218 23015G25KT
BECMG 2218/2221 NSW
BECMG 2309/2312 FEW030 SCT050
ATIS : +41 22 417 40 81
No reported NOTAMs for that airfield.



MET'MAP, your aeronautical weather chart ! - Copyright ORBIFLY December 2007 - Disclaimer

ORBIFLY MET'MAP TEAM :

Programming & Development : Alexandra Zaïnal
Concept & Development : Baudouin d'Aumeries
Co-Development & Prog : Marc-Olivier Méhu
Technical & hardware support : Manuel Goepfert

Contact : metmap@orbifly.com




SOURCES & CREDITS :

   NOAA